createdAt,value
2017-12-08T00:00:21.105Z,6.52
2017-12-08T00:02:47.022Z,6.54
2017-12-08T00:05:15.776Z,6.52
2017-12-08T00:07:41.790Z,6.52
2017-12-08T00:10:11.431Z,6.53
2017-12-08T00:12:37.340Z,6.50
2017-12-08T00:15:03.181Z,6.50
2017-12-08T00:17:29.801Z,6.46
2017-12-08T00:19:55.639Z,6.40
2017-12-08T00:22:22.556Z,6.41
2017-12-08T00:24:48.402Z,6.46
2017-12-08T00:27:17.455Z,6.43
2017-12-08T00:29:43.262Z,6.40
2017-12-08T00:32:12.642Z,6.42
2017-12-08T00:34:38.411Z,6.39
2017-12-08T00:37:07.383Z,6.35
2017-12-08T00:39:33.258Z,6.32
2017-12-08T00:42:02.420Z,6.30
2017-12-08T00:44:28.268Z,6.32
2017-12-08T00:46:55.914Z,6.32
2017-12-08T00:49:21.760Z,6.27
2017-12-08T00:51:47.615Z,6.27
2017-12-08T00:54:13.445Z,6.26
2017-12-08T00:56:39.332Z,6.27
2017-12-08T00:59:08.141Z,6.26
2017-12-08T01:01:33.999Z,6.24
2017-12-08T01:04:02.148Z,6.29
2017-12-08T01:06:27.984Z,6.32
2017-12-08T01:08:56.806Z,6.29
2017-12-08T01:11:22.685Z,6.31
2017-12-08T01:13:51.486Z,6.32
2017-12-08T01:18:54.375Z,6.38
2017-12-08T01:21:20.188Z,6.41
2017-12-08T01:23:46.038Z,6.39
2017-12-08T01:26:11.901Z,6.41
2017-12-08T01:28:37.727Z,6.35
2017-12-08T01:31:03.570Z,6.40
2017-12-08T01:33:29.403Z,6.47
2017-12-08T01:35:55.273Z,6.44
2017-12-08T01:38:21.069Z,6.46
2017-12-08T01:40:47.687Z,6.47
2017-12-08T01:43:13.497Z,6.47
2017-12-08T01:45:46.161Z,6.51
2017-12-08T01:48:12.034Z,6.50
2017-12-08T01:50:37.849Z,6.49
2017-12-08T01:53:03.704Z,6.53
2017-12-08T01:55:33.298Z,6.50
2017-12-08T01:57:59.099Z,6.52
2017-12-08T02:00:43.395Z,6.52
2017-12-08T02:03:09.210Z,6.53
2017-12-08T02:05:35.060Z,6.48
2017-12-08T02:08:00.889Z,6.54
2017-12-08T02:10:26.766Z,6.55
2017-12-08T02:12:52.675Z,6.55
2017-12-08T02:15:18.523Z,6.58
2017-12-08T02:17:44.405Z,6.58
2017-12-08T02:20:10.219Z,6.65
2017-12-08T02:22:36.123Z,6.72
2017-12-08T02:25:01.984Z,6.72
2017-12-08T02:27:27.806Z,6.75
2017-12-08T02:29:53.625Z,6.80
2017-12-08T02:32:19.435Z,6.78
2017-12-08T02:34:45.254Z,6.85
2017-12-08T02:37:11.912Z,6.86
2017-12-08T02:39:37.713Z,6.91
2017-12-08T02:42:03.509Z,6.89
2017-12-08T02:44:29.291Z,6.84
2017-12-08T02:46:55.101Z,6.83
2017-12-08T02:49:24.618Z,6.67
2017-12-08T02:51:50.455Z,6.74
2017-12-08T02:54:18.899Z,6.73
2017-12-08T02:56:44.679Z,6.71
2017-12-08T02:59:13.016Z,6.74
2017-12-08T03:01:38.803Z,6.74
2017-12-08T03:04:08.000Z,6.77
2017-12-08T03:06:33.765Z,6.71
2017-12-08T03:09:03.018Z,6.68
2017-12-08T03:11:28.899Z,6.67
2017-12-08T03:13:58.475Z,6.72
2017-12-08T03:16:24.301Z,6.71
2017-12-08T03:18:50.169Z,6.73
2017-12-08T03:21:16.062Z,6.70
2017-12-08T03:23:41.861Z,6.73
2017-12-08T03:26:08.890Z,6.78
2017-12-08T03:28:34.725Z,6.75
2017-12-08T03:31:03.536Z,6.79
2017-12-08T03:33:29.349Z,6.82
2017-12-08T03:35:58.757Z,6.77
2017-12-08T03:38:24.581Z,6.75
2017-12-08T03:40:54.398Z,6.76
2017-12-08T03:43:20.234Z,6.73
2017-12-08T03:45:49.340Z,6.73
2017-12-08T03:48:15.149Z,6.71
2017-12-08T03:50:42.414Z,6.74
2017-12-08T03:53:08.272Z,6.78
2017-12-08T03:55:34.135Z,6.77
2017-12-08T03:58:00.013Z,6.75
2017-12-08T04:00:25.816Z,6.78
2017-12-08T04:02:55.389Z,6.74
2017-12-08T04:05:21.258Z,6.73
2017-12-08T04:07:50.594Z,6.69
2017-12-08T04:10:16.476Z,6.70
2017-12-08T04:12:43.788Z,6.71
2017-12-08T04:15:09.609Z,6.65
2017-12-08T04:17:39.432Z,6.24
2017-12-08T04:20:05.262Z,5.92
2017-12-08T04:22:33.107Z,5.78
2017-12-08T04:24:58.984Z,5.67
2017-12-08T04:27:27.999Z,5.58
2017-12-08T04:29:53.851Z,5.54
2017-12-08T04:32:19.696Z,5.45
2017-12-08T04:34:45.553Z,5.42
2017-12-08T04:37:11.409Z,5.35
2017-12-08T04:39:39.519Z,5.28
2017-12-08T04:42:05.379Z,5.23
2017-12-08T04:44:35.442Z,5.21
2017-12-08T04:47:01.290Z,5.09
2017-12-08T04:49:28.922Z,5.04
2017-12-08T04:51:54.874Z,5.02
2017-12-08T04:54:24.476Z,4.99
2017-12-08T04:56:50.376Z,4.92
2017-12-08T04:59:19.800Z,4.91
2017-12-08T05:01:45.657Z,4.86
2017-12-08T05:04:14.790Z,4.83
2017-12-08T05:06:40.643Z,4.83
2017-12-08T05:09:06.499Z,4.80
2017-12-08T05:11:32.386Z,4.75
2017-12-08T05:13:58.240Z,4.76
2017-12-08T05:16:24.957Z,4.77
2017-12-08T05:18:50.854Z,4.78
2017-12-08T05:21:19.949Z,4.78
2017-12-08T05:23:45.802Z,4.82
2017-12-08T05:26:15.134Z,4.82
2017-12-08T05:28:40.993Z,4.85
2017-12-08T05:31:08.663Z,4.93
2017-12-08T05:33:34.572Z,4.92
2017-12-08T05:36:03.500Z,4.93
2017-12-08T05:38:29.389Z,4.97
2017-12-08T05:40:58.391Z,4.98
2017-12-08T05:43:24.327Z,4.98
2017-12-08T05:45:50.179Z,4.98
2017-12-08T05:48:16.042Z,4.92
2017-12-08T05:50:41.975Z,4.90
2017-12-08T05:53:11.399Z,4.90
2017-12-08T05:55:37.300Z,4.91
2017-12-08T05:58:06.575Z,4.86
2017-12-08T06:00:32.515Z,4.89
2017-12-08T06:02:59.683Z,4.85
2017-12-08T06:05:25.555Z,4.87
2017-12-08T06:07:54.591Z,4.86
2017-12-08T06:10:20.463Z,4.87
2017-12-08T06:12:49.766Z,4.86
2017-12-08T06:15:15.668Z,4.87
2017-12-08T06:17:45.017Z,4.85
2017-12-08T06:20:10.868Z,4.88
2017-12-08T06:22:36.795Z,4.88
2017-12-08T06:25:02.715Z,4.79
2017-12-08T06:27:28.567Z,4.79
2017-12-08T06:29:55.683Z,4.82
2017-12-08T06:32:21.600Z,4.81
2017-12-08T06:34:50.666Z,4.84
2017-12-08T06:37:16.556Z,4.76
2017-12-08T06:39:45.719Z,4.73
2017-12-08T06:42:11.530Z,4.73
2017-12-08T06:44:41.077Z,4.70
2017-12-08T06:47:06.906Z,4.71
2017-12-08T06:49:35.943Z,4.69
2017-12-08T06:52:01.838Z,4.69
2017-12-08T06:54:29.857Z,4.64
2017-12-08T06:56:55.748Z,4.64
2017-12-08T06:59:21.580Z,4.59
2017-12-08T07:01:47.423Z,4.60
2017-12-08T07:04:13.225Z,4.56
2017-12-08T07:06:41.024Z,4.55
2017-12-08T07:09:06.863Z,4.51
2017-12-08T07:11:36.041Z,4.47
2017-12-08T07:14:01.884Z,4.51
2017-12-08T07:16:30.945Z,4.49
2017-12-08T07:18:56.787Z,4.40
2017-12-08T07:21:25.775Z,4.43
2017-12-08T07:23:51.590Z,4.42
2017-12-08T07:26:20.938Z,4.34
2017-12-08T07:28:46.766Z,4.29
2017-12-08T07:31:16.020Z,4.31
2017-12-08T07:33:41.863Z,4.30
2017-12-08T07:36:07.667Z,4.29
2017-12-08T07:38:33.505Z,4.30
2017-12-08T07:40:59.367Z,4.27
2017-12-08T07:43:26.008Z,4.25
2017-12-08T07:45:51.853Z,4.24
2017-12-08T07:48:21.225Z,4.23
2017-12-08T07:50:47.040Z,4.18
2017-12-08T07:53:16.044Z,4.19
2017-12-08T07:55:41.877Z,4.17
2017-12-08T07:58:11.023Z,4.23
2017-12-08T08:00:36.841Z,4.19
2017-12-08T08:03:06.232Z,4.23
2017-12-08T08:05:32.063Z,4.21
2017-12-08T08:07:59.654Z,4.22
2017-12-08T08:10:25.447Z,4.27
2017-12-08T08:12:51.348Z,4.33
2017-12-08T08:15:17.206Z,4.46
2017-12-08T08:17:43.075Z,5.28
2017-12-08T08:20:12.015Z,6.27
2017-12-08T08:22:37.856Z,6.50
2017-12-08T08:25:06.113Z,6.61
2017-12-08T08:27:31.950Z,6.54
2017-12-08T08:30:01.531Z,5.95
2017-12-08T08:32:27.418Z,5.67
2017-12-08T08:34:57.097Z,5.23
2017-12-08T08:37:22.896Z,4.92
2017-12-08T08:39:50.488Z,4.76
2017-12-08T08:42:16.362Z,4.91
2017-12-08T08:44:45.824Z,5.20
2017-12-08T08:47:11.687Z,5.98
2017-12-08T08:49:37.520Z,6.34
2017-12-08T08:52:03.345Z,7.81
2017-12-08T08:54:29.136Z,9.13
2017-12-08T08:56:56.669Z,10.05
2017-12-08T08:59:22.483Z,10.66
2017-12-08T09:01:51.144Z,11.04
2017-12-08T09:04:16.980Z,10.56
2017-12-08T09:06:45.628Z,9.97
2017-12-08T09:09:11.444Z,10.23
2017-12-08T09:14:08.003Z,9.24
2017-12-08T09:16:35.458Z,8.47
2017-12-08T09:19:01.315Z,9.19
2017-12-08T09:23:35.021Z,10.24
2017-12-08T09:26:00.896Z,9.60
2017-12-08T09:28:26.758Z,9.13
2017-12-08T09:30:52.595Z,7.92
2017-12-08T09:33:19.065Z,7.29
2017-12-08T09:35:44.930Z,6.54
2017-12-08T09:38:10.773Z,6.09
2017-12-08T09:40:36.594Z,5.81
2017-12-08T09:43:02.474Z,5.73
2017-12-08T09:45:28.308Z,5.95
2017-12-08T09:47:54.117Z,5.95
2017-12-08T09:50:19.945Z,5.91
2017-12-08T09:52:45.818Z,5.83
2017-12-08T09:55:11.669Z,5.88
2017-12-08T09:57:37.525Z,6.21
2017-12-08T10:00:03.320Z,6.09
2017-12-08T10:02:29.132Z,5.96
2017-12-08T10:04:55.032Z,5.81
2017-12-08T10:07:20.837Z,5.94
2017-12-08T10:09:46.616Z,5.70
2017-12-08T10:12:12.463Z,5.57
2017-12-08T10:14:38.301Z,5.50
2017-12-08T10:17:04.156Z,5.64
2017-12-08T10:19:30.013Z,5.60
2017-12-08T10:21:55.861Z,5.93
2017-12-08T10:24:21.718Z,6.80
2017-12-08T10:26:47.562Z,7.55
2017-12-08T10:29:13.396Z,8.13
2017-12-08T10:31:39.271Z,7.99
2017-12-08T10:34:05.133Z,7.56
2017-12-08T10:36:30.956Z,8.73
2017-12-08T10:38:56.821Z,9.17
2017-12-08T10:41:22.681Z,8.72
2017-12-08T10:43:48.581Z,8.11
2017-12-08T10:46:14.448Z,8.15
2017-12-08T10:48:40.304Z,7.75
2017-12-08T10:51:06.152Z,7.67
2017-12-08T10:53:32.058Z,6.96
2017-12-08T10:55:57.844Z,6.58
2017-12-08T10:58:23.729Z,6.65
2017-12-08T11:00:49.578Z,7.00
2017-12-08T11:03:15.446Z,6.79
2017-12-08T11:05:41.342Z,6.50
2017-12-08T11:08:07.175Z,6.51
2017-12-08T11:10:33.018Z,6.44
2017-12-08T11:12:58.865Z,6.55
2017-12-08T11:15:24.729Z,6.77
2017-12-08T11:17:52.199Z,6.59
2017-12-08T11:20:18.051Z,6.19
2017-12-08T11:22:47.109Z,5.94
2017-12-08T11:25:12.956Z,5.99
2017-12-08T11:27:42.137Z,6.01
2017-12-08T11:30:08.015Z,6.02
2017-12-08T11:32:33.834Z,5.92
2017-12-08T11:34:59.635Z,6.42
2017-12-08T11:37:25.467Z,6.69
2017-12-08T11:39:53.108Z,6.91
2017-12-08T11:42:18.953Z,6.57
2017-12-08T11:44:48.310Z,6.42
2017-12-08T11:47:14.176Z,6.26
2017-12-08T11:49:43.289Z,5.72
2017-12-08T11:52:09.115Z,5.62
2017-12-08T11:54:38.148Z,5.43
2017-12-08T11:57:04.007Z,5.35
2017-12-08T11:59:31.691Z,5.23
2017-12-08T12:01:57.517Z,5.10
2017-12-08T12:06:54.238Z,4.34
2017-12-08T12:09:20.082Z,3.98
2017-12-08T12:11:45.882Z,3.72
2017-12-08T12:14:11.716Z,3.66
2017-12-08T12:16:39.119Z,3.62
2017-12-08T12:19:04.922Z,3.41
2017-12-08T12:21:33.420Z,2.95
2017-12-08T12:23:59.284Z,2.65
2017-12-08T12:26:28.373Z,2.49
2017-12-08T12:28:54.211Z,2.07
2017-12-08T12:31:23.354Z,1.72
2017-12-08T12:33:49.189Z,1.47
2017-12-08T12:36:18.888Z,1.40
2017-12-08T12:38:44.691Z,1.40
2017-12-08T12:41:13.913Z,1.48
2017-12-08T12:43:39.728Z,1.54
2017-12-08T12:46:05.537Z,1.57
2017-12-08T12:48:31.398Z,1.60
2017-12-08T12:50:57.221Z,1.80
2017-12-08T12:53:23.884Z,1.97
2017-12-08T12:55:49.696Z,2.22
2017-12-08T12:58:18.969Z,2.38
2017-12-08T13:00:44.802Z,2.65
2017-12-08T13:03:13.902Z,2.80
2017-12-08T13:05:39.771Z,2.73
2017-12-08T13:08:07.649Z,2.67
2017-12-08T13:10:33.483Z,2.90
2017-12-08T13:13:02.178Z,2.93
2017-12-08T13:15:28.014Z,2.71
2017-12-08T13:17:56.814Z,2.50
2017-12-08T13:20:22.703Z,2.32
2017-12-08T13:22:48.533Z,2.27
2017-12-08T13:25:14.332Z,2.29
2017-12-08T13:27:40.154Z,2.35
2017-12-08T13:30:09.579Z,2.36
2017-12-08T13:32:35.354Z,2.47
2017-12-08T13:35:04.658Z,2.71
2017-12-08T13:37:30.505Z,2.83
2017-12-08T13:39:58.269Z,2.86
2017-12-08T13:42:24.101Z,2.98
2017-12-08T13:47:20.984Z,2.85
2017-12-08T13:49:48.449Z,2.71
2017-12-08T13:52:14.369Z,2.67
2017-12-08T13:54:52.959Z,2.63
2017-12-08T13:57:18.778Z,2.57
2017-12-08T13:59:44.567Z,2.56
2017-12-08T14:02:10.526Z,2.52
2017-12-08T14:04:36.397Z,2.41
2017-12-08T14:07:02.261Z,2.34
2017-12-08T14:09:28.134Z,2.26
2017-12-08T14:11:53.937Z,2.35
2017-12-08T14:14:19.775Z,2.35
2017-12-08T14:16:45.612Z,2.20
2017-12-08T14:19:11.444Z,2.14
2017-12-08T14:21:38.565Z,2.05
2017-12-08T14:24:04.490Z,2.02
2017-12-08T14:26:32.911Z,1.98
2017-12-08T14:28:58.796Z,1.99
2017-12-08T14:33:55.518Z,1.94
2017-12-08T14:36:21.332Z,1.92
2017-12-08T14:38:47.139Z,1.93
2017-12-08T14:41:12.943Z,1.91
2017-12-08T14:43:40.408Z,1.89
2017-12-08T14:46:06.212Z,1.90
2017-12-08T14:48:35.416Z,1.95
2017-12-08T14:51:01.244Z,1.95
2017-12-08T14:53:28.797Z,1.93
2017-12-08T14:55:54.647Z,1.93
2017-12-08T14:58:21.166Z,1.92
2017-12-08T15:00:46.963Z,1.91
2017-12-08T15:03:12.826Z,1.93
2017-12-08T15:05:42.147Z,1.94
2017-12-08T15:08:07.982Z,1.92
2017-12-08T15:10:37.661Z,1.88
2017-12-08T15:13:03.547Z,1.89
2017-12-08T15:15:30.854Z,1.82
2017-12-08T15:17:56.680Z,1.76
2017-12-08T15:20:25.021Z,1.68
2017-12-08T15:22:50.826Z,1.62
2017-12-08T15:25:19.419Z,1.62
2017-12-08T15:27:45.224Z,1.61
2017-12-08T15:30:11.797Z,1.53
2017-12-08T15:32:37.612Z,1.54
2017-12-08T15:35:03.528Z,1.56
2017-12-08T15:37:32.440Z,1.54
2017-12-08T15:39:58.419Z,1.56
2017-12-08T15:42:27.159Z,1.53
2017-12-08T15:44:52.985Z,1.49
2017-12-08T15:47:21.841Z,1.51
2017-12-08T15:49:47.675Z,1.51
2017-12-08T15:52:16.149Z,1.51
2017-12-08T15:54:42.036Z,1.52
2017-12-08T15:57:11.566Z,1.49
2017-12-08T15:59:37.376Z,1.50
2017-12-08T16:02:04.978Z,1.45
2017-12-08T16:04:30.836Z,1.47
2017-12-08T16:07:00.611Z,1.50
2017-12-08T16:09:26.468Z,1.49
2017-12-08T16:11:56.155Z,1.52
2017-12-08T16:14:22.042Z,1.54
2017-12-08T16:16:49.852Z,1.54
2017-12-08T16:19:15.848Z,1.54
2017-12-08T16:21:45.387Z,1.52
2017-12-08T16:24:11.321Z,1.55
2017-12-08T16:26:37.172Z,1.63
2017-12-08T16:29:03.018Z,1.60
2017-12-08T16:31:28.866Z,1.58
2017-12-08T16:33:55.682Z,1.53
2017-12-08T16:36:21.560Z,1.55
2017-12-08T16:38:51.109Z,1.56
2017-12-08T16:41:16.991Z,1.52
2017-12-08T16:43:46.259Z,1.50
2017-12-08T16:46:12.100Z,1.55
2017-12-08T16:48:39.806Z,1.61
2017-12-08T16:51:05.665Z,1.63
2017-12-08T16:53:35.225Z,1.66
2017-12-08T16:56:01.069Z,1.71
2017-12-08T16:58:30.537Z,1.71
2017-12-08T17:00:56.433Z,1.58
2017-12-08T17:03:22.298Z,1.39
2017-12-08T17:05:48.183Z,1.34
2017-12-08T17:08:14.013Z,1.36
2017-12-08T17:10:41.180Z,1.37
2017-12-08T17:13:07.083Z,1.38
2017-12-08T17:15:36.113Z,1.33
2017-12-08T17:18:02.007Z,1.31
2017-12-08T17:20:31.591Z,1.31
2017-12-08T17:22:57.430Z,1.42
2017-12-08T17:25:26.414Z,1.49
2017-12-08T17:27:52.255Z,1.59
2017-12-08T17:30:21.280Z,1.23
2017-12-08T17:32:47.130Z,1.56
2017-12-08T17:35:16.232Z,1.56
2017-12-08T17:37:42.145Z,1.48
2017-12-08T17:40:08.024Z,1.48
2017-12-08T17:42:33.850Z,1.30
2017-12-08T17:44:59.714Z,1.15
2017-12-08T17:47:26.738Z,1.08
2017-12-08T17:49:52.557Z,1.08
2017-12-08T17:52:21.908Z,1.14
2017-12-08T17:54:47.745Z,1.18
2017-12-08T17:57:15.950Z,1.23
2017-12-08T17:59:41.792Z,1.24
2017-12-08T18:02:10.099Z,1.26
2017-12-08T18:04:35.991Z,1.30
2017-12-08T18:07:05.474Z,1.28
2017-12-08T18:09:31.383Z,1.36
2017-12-08T18:12:00.825Z,1.36
2017-12-08T18:14:26.684Z,1.36
2017-12-08T18:16:52.503Z,1.35
2017-12-08T18:19:18.363Z,1.32
2017-12-08T18:21:44.212Z,1.33
2017-12-08T18:24:11.625Z,1.37
2017-12-08T18:26:37.465Z,1.38
2017-12-08T18:29:07.160Z,1.45
2017-12-08T18:31:32.989Z,1.47
2017-12-08T18:34:00.858Z,1.57
2017-12-08T18:36:26.764Z,1.66
2017-12-08T18:38:56.739Z,1.69
2017-12-08T18:41:22.613Z,1.70
2017-12-08T18:43:50.247Z,1.69
2017-12-08T18:46:16.138Z,1.69
2017-12-08T18:48:45.624Z,1.77
2017-12-08T18:51:11.485Z,1.77
2017-12-08T18:53:37.365Z,1.83
2017-12-08T18:56:03.241Z,1.85
2017-12-08T18:58:29.057Z,1.87
2017-12-08T19:00:56.751Z,1.89
2017-12-08T19:03:22.562Z,1.83
2017-12-08T19:05:52.021Z,1.86
2017-12-08T19:08:17.872Z,1.81
2017-12-08T19:10:47.396Z,1.85
2017-12-08T19:13:13.179Z,1.78
2017-12-08T19:15:41.048Z,1.72
2017-12-08T19:18:06.831Z,1.79
2017-12-08T19:20:36.184Z,1.75
2017-12-08T19:23:02.041Z,1.73
2017-12-08T19:25:30.970Z,1.73
2017-12-08T19:27:56.829Z,1.73
2017-12-08T19:30:22.676Z,1.71
2017-12-08T19:32:48.583Z,1.62
2017-12-08T19:35:14.440Z,1.61
2017-12-08T19:37:43.700Z,1.51
2017-12-08T19:40:09.572Z,1.50
2017-12-08T19:42:36.938Z,1.43
2017-12-08T19:45:02.868Z,1.40
2017-12-08T19:47:32.331Z,1.44
2017-12-08T19:49:58.196Z,1.43
2017-12-08T19:52:27.641Z,1.44
2017-12-08T19:54:53.506Z,1.46
2017-12-08T19:57:22.899Z,1.54
2017-12-08T19:59:48.754Z,1.57
2017-12-08T20:02:16.374Z,1.53
2017-12-08T20:04:42.205Z,1.54
2017-12-08T20:07:08.050Z,1.56
2017-12-08T20:09:33.903Z,1.57
2017-12-08T20:11:59.746Z,1.61
2017-12-08T20:14:27.668Z,1.51
2017-12-08T20:16:53.516Z,1.40
2017-12-08T20:19:22.911Z,1.44
2017-12-08T20:21:48.770Z,1.35
2017-12-08T20:24:17.903Z,1.39
2017-12-08T20:26:43.731Z,1.37
2017-12-08T20:29:11.307Z,1.41
2017-12-08T20:31:37.156Z,1.40
2017-12-08T20:34:06.015Z,1.42
2017-12-08T20:36:31.894Z,1.36
2017-12-08T20:41:28.658Z,1.39
2017-12-08T20:43:54.489Z,1.40
2017-12-08T20:46:20.353Z,1.43
2017-12-08T20:48:46.188Z,1.49
2017-12-08T20:51:12.883Z,1.49
2017-12-08T20:53:38.743Z,1.43
2017-12-08T20:56:07.804Z,1.40
2017-12-08T20:58:33.675Z,1.35
2017-12-08T21:01:02.751Z,1.36
2017-12-08T21:03:28.597Z,1.33
2017-12-08T21:05:58.112Z,1.29
2017-12-08T21:08:23.942Z,1.29
2017-12-08T21:10:53.157Z,1.30
2017-12-08T21:13:19.007Z,1.31
2017-12-08T21:15:46.677Z,1.33
2017-12-08T21:18:12.517Z,1.35
2017-12-08T21:20:38.357Z,1.32
2017-12-08T21:23:04.245Z,1.28
2017-12-08T21:25:30.173Z,1.24
2017-12-08T21:27:57.763Z,1.19
2017-12-08T21:30:23.616Z,1.16
2017-12-08T21:35:20.366Z,1.15
2017-12-08T21:37:47.699Z,1.20
2017-12-08T21:43:06.443Z,1.16
2017-12-08T21:45:32.288Z,1.18
2017-12-08T21:47:58.132Z,1.24
2017-12-08T21:50:23.965Z,1.23
2017-12-08T21:52:49.775Z,1.24
2017-12-08T21:55:15.640Z,1.23
2017-12-08T21:57:41.514Z,1.26
2017-12-08T22:00:07.409Z,1.29
2017-12-08T22:02:33.311Z,1.28
2017-12-08T22:04:59.204Z,1.32
2017-12-08T22:07:25.039Z,1.31
2017-12-08T22:09:50.915Z,1.20
2017-12-08T22:12:16.786Z,0.96
2017-12-08T22:14:42.620Z,0.70
2017-12-08T22:17:08.444Z,0.47
2017-12-08T22:19:34.297Z,0.47
2017-12-08T22:22:00.227Z,0.52
2017-12-08T22:24:26.156Z,0.57
2017-12-08T22:26:51.982Z,0.67
2017-12-08T22:29:17.801Z,0.77
2017-12-08T22:31:43.634Z,0.77
2017-12-08T22:34:09.510Z,0.73
2017-12-08T22:36:35.355Z,0.68
2017-12-08T22:39:01.163Z,0.61
2017-12-08T22:41:30.450Z,0.60
2017-12-08T22:43:56.325Z,0.59
2017-12-08T22:46:23.483Z,0.58
2017-12-08T22:48:49.323Z,0.51
2017-12-08T22:51:18.871Z,0.51
2017-12-08T22:53:44.823Z,0.50
2017-12-08T22:56:13.686Z,0.51
2017-12-08T22:58:39.510Z,0.57
2017-12-08T23:01:08.803Z,0.59
2017-12-08T23:03:34.654Z,0.64
2017-12-08T23:06:03.996Z,0.63
2017-12-08T23:08:29.819Z,0.62
2017-12-08T23:10:55.695Z,0.67
2017-12-08T23:13:21.527Z,0.62
2017-12-08T23:15:47.327Z,0.53
2017-12-08T23:18:14.000Z,0.42
2017-12-08T23:20:39.819Z,0.39
2017-12-08T23:23:08.911Z,0.33
2017-12-08T23:25:34.733Z,0.26
2017-12-08T23:28:04.348Z,0.26
2017-12-08T23:30:30.185Z,0.21
2017-12-08T23:32:59.427Z,0.17
2017-12-08T23:35:25.263Z,0.14
2017-12-08T23:37:52.895Z,0.15
2017-12-08T23:40:18.704Z,0.15
2017-12-08T23:42:48.144Z,0.14
2017-12-08T23:45:13.985Z,0.07
2017-12-08T23:47:39.802Z,0.09
2017-12-08T23:50:05.654Z,0.05
2017-12-08T23:52:31.518Z,0.02
2017-12-08T23:55:00.412Z,0.04
2017-12-08T23:57:26.250Z,0.06
2017-12-08T23:59:55.452Z,0.08
